createdAt,value
2018-10-09T00:00:28.130Z,1018.20
2018-10-09T00:01:28.115Z,1018.19
2018-10-09T00:02:28.091Z,1018.19
2018-10-09T00:03:28.072Z,1018.21
2018-10-09T00:04:28.050Z,1018.21
2018-10-09T00:05:28.030Z,1018.21
2018-10-09T00:06:28.008Z,1018.17
2018-10-09T00:07:27.984Z,1018.15
2018-10-09T00:08:27.969Z,1018.17
2018-10-09T00:09:27.941Z,1018.06
2018-10-09T00:10:27.918Z,1018.08
2018-10-09T00:11:27.900Z,1018.02
2018-10-09T00:12:27.876Z,1018.02
2018-10-09T00:13:27.856Z,1018.02
2018-10-09T00:14:27.839Z,1017.98
2018-10-09T00:15:27.816Z,1017.97
2018-10-09T00:16:27.794Z,1017.96
2018-10-09T00:17:27.774Z,1017.99
2018-10-09T00:18:27.753Z,1017.95
2018-10-09T00:19:27.732Z,1018.01
2018-10-09T00:20:27.709Z,1018.04
2018-10-09T00:21:27.696Z,1018.00
2018-10-09T00:22:27.670Z,1017.94
2018-10-09T00:23:27.649Z,1017.96
2018-10-09T00:24:27.626Z,1017.93
2018-10-09T00:25:27.609Z,1017.87
2018-10-09T00:26:27.588Z,1017.87
2018-10-09T00:27:27.564Z,1017.87
2018-10-09T00:28:27.546Z,1017.82
2018-10-09T00:29:27.520Z,1017.82
2018-10-09T00:30:27.498Z,1017.87
2018-10-09T00:31:27.476Z,1017.85
2018-10-09T00:32:27.456Z,1017.86
2018-10-09T00:33:27.438Z,1017.88
2018-10-09T00:34:27.409Z,1017.88
2018-10-09T00:35:27.396Z,1017.86
2018-10-09T00:36:27.374Z,1017.88
2018-10-09T00:37:27.349Z,1017.87
2018-10-09T00:38:27.330Z,1017.89
2018-10-09T00:39:27.308Z,1017.90
2018-10-09T00:40:27.289Z,1017.92
2018-10-09T00:41:27.268Z,1017.94
2018-10-09T00:42:27.248Z,1018.01
2018-10-09T00:43:27.224Z,1017.98
2018-10-09T00:44:27.199Z,1017.94
2018-10-09T00:45:27.183Z,1017.92
2018-10-09T00:46:27.163Z,1017.88
2018-10-09T00:47:27.145Z,1017.81
2018-10-09T00:48:27.121Z,1017.78
2018-10-09T00:49:27.100Z,1017.76
2018-10-09T00:50:27.075Z,1017.77
2018-10-09T00:51:27.058Z,1017.74
2018-10-09T00:52:27.040Z,1017.72
2018-10-09T00:53:27.012Z,1017.68
2018-10-09T00:54:26.992Z,1017.65
2018-10-09T00:55:26.972Z,1017.64
2018-10-09T00:56:26.945Z,1017.67
2018-10-09T00:57:26.928Z,1017.65
2018-10-09T00:58:26.905Z,1017.67
2018-10-09T00:59:26.885Z,1017.70
2018-10-09T01:00:26.862Z,1017.66
2018-10-09T01:01:26.848Z,1017.69
2018-10-09T01:02:26.822Z,1017.71
2018-10-09T01:03:26.803Z,1017.73
2018-10-09T01:04:26.785Z,1017.73
2018-10-09T01:05:26.761Z,1017.70
2018-10-09T01:06:26.746Z,1017.76
2018-10-09T01:07:26.718Z,1017.76
2018-10-09T01:08:26.690Z,1017.84
2018-10-09T01:09:26.678Z,1017.83
2018-10-09T01:10:26.657Z,1017.83
2018-10-09T01:11:26.633Z,1017.85
2018-10-09T01:12:26.606Z,1017.82
2018-10-09T01:13:26.587Z,1017.84
2018-10-09T01:14:26.565Z,1017.80
2018-10-09T01:15:26.550Z,1017.81
2018-10-09T01:16:26.526Z,1017.81
2018-10-09T01:17:26.506Z,1017.76
2018-10-09T01:18:26.481Z,1017.77
2018-10-09T01:19:26.464Z,1017.79
2018-10-09T01:20:26.434Z,1017.76
2018-10-09T01:21:26.414Z,1017.77
2018-10-09T01:22:26.396Z,1017.75
2018-10-09T01:23:26.378Z,1017.75
2018-10-09T01:24:26.354Z,1017.74
2018-10-09T01:25:26.338Z,1017.72
2018-10-09T01:26:26.308Z,1017.74
2018-10-09T01:27:26.290Z,1017.75
2018-10-09T01:28:26.264Z,1017.81
2018-10-09T01:29:26.254Z,1017.81
2018-10-09T01:30:26.223Z,1017.90
2018-10-09T01:31:26.252Z,1017.95
2018-10-09T01:32:26.182Z,1017.91
2018-10-09T01:33:26.161Z,1017.94
2018-10-09T01:34:26.142Z,1017.94
2018-10-09T01:35:26.118Z,1017.94
2018-10-09T01:36:26.096Z,1017.96
2018-10-09T01:37:26.071Z,1017.93
2018-10-09T01:38:26.056Z,1017.96
2018-10-09T01:39:26.032Z,1017.93
2018-10-09T01:40:26.012Z,1017.91
2018-10-09T01:41:25.992Z,1017.88
2018-10-09T01:42:25.974Z,1017.87
2018-10-09T01:43:25.950Z,1017.88
2018-10-09T01:44:25.926Z,1017.86
2018-10-09T01:45:25.908Z,1017.94
2018-10-09T01:46:25.886Z,1017.93
2018-10-09T01:47:25.864Z,1017.92
2018-10-09T01:48:25.840Z,1017.85
2018-10-09T01:49:25.819Z,1017.88
2018-10-09T01:50:25.798Z,1017.85
2018-10-09T01:51:25.782Z,1017.83
2018-10-09T01:52:25.758Z,1017.81
2018-10-09T01:53:25.736Z,1017.80
2018-10-09T01:54:25.712Z,1017.82
2018-10-09T01:55:25.700Z,1017.82
2018-10-09T01:56:25.673Z,1017.80
2018-10-09T01:57:25.648Z,1017.82
2018-10-09T01:58:25.628Z,1017.83
2018-10-09T01:59:25.608Z,1017.79
2018-10-09T02:00:25.590Z,1017.78
2018-10-09T02:01:25.566Z,1017.73
2018-10-09T02:02:25.540Z,1017.73
2018-10-09T02:03:25.519Z,1017.76
2018-10-09T02:04:25.502Z,1017.76
2018-10-09T02:05:25.486Z,1017.77
2018-10-09T02:06:25.456Z,1017.76
2018-10-09T02:07:25.435Z,1017.80
2018-10-09T02:08:25.417Z,1017.65
2018-10-09T02:09:25.389Z,1017.68
2018-10-09T02:10:25.372Z,1017.70
2018-10-09T02:11:25.350Z,1017.70
2018-10-09T02:12:25.328Z,1017.78
2018-10-09T02:13:25.303Z,1017.79
2018-10-09T02:14:25.286Z,1017.81
2018-10-09T02:15:25.267Z,1017.77
2018-10-09T02:16:25.238Z,1017.75
2018-10-09T02:17:25.220Z,1017.70
2018-10-09T02:18:25.204Z,1017.75
2018-10-09T02:19:25.182Z,1017.76
2018-10-09T02:20:25.156Z,1017.80
2018-10-09T02:21:25.134Z,1017.78
2018-10-09T02:22:25.114Z,1017.86
2018-10-09T02:23:25.093Z,1017.83
2018-10-09T02:24:25.070Z,1017.87
2018-10-09T02:25:25.050Z,1017.85
2018-10-09T02:26:25.028Z,1017.84
2018-10-09T02:27:25.010Z,1017.84
2018-10-09T02:28:24.983Z,1017.87
2018-10-09T02:29:24.965Z,1017.86
2018-10-09T02:30:24.944Z,1017.87
2018-10-09T02:31:24.917Z,1017.91
2018-10-09T02:32:24.894Z,1017.93
2018-10-09T02:33:24.935Z,1017.90
2018-10-09T02:34:24.853Z,1017.93
2018-10-09T02:35:24.832Z,1017.92
2018-10-09T02:36:24.805Z,1017.95
2018-10-09T02:37:24.799Z,1017.99
2018-10-09T02:38:24.771Z,1017.95
2018-10-09T02:39:24.746Z,1017.99
2018-10-09T02:40:24.728Z,1018.04
2018-10-09T02:41:27.932Z,1018.11
2018-10-09T02:42:24.682Z,1018.15
2018-10-09T02:43:24.656Z,1018.16
2018-10-09T02:44:24.637Z,1018.19
2018-10-09T02:45:24.616Z,1018.24
2018-10-09T02:46:24.591Z,1018.20
2018-10-09T02:47:24.575Z,1018.14
2018-10-09T02:48:24.549Z,1018.19
2018-10-09T02:49:24.531Z,1018.16
2018-10-09T02:50:24.513Z,1018.15
2018-10-09T02:51:24.487Z,1018.12
2018-10-09T02:52:24.464Z,1018.11
2018-10-09T02:53:24.443Z,1018.10
2018-10-09T02:54:24.426Z,1018.04
2018-10-09T02:55:24.402Z,1018.05
2018-10-09T02:56:24.383Z,1018.01
2018-10-09T02:57:24.360Z,1017.98
2018-10-09T02:58:24.336Z,1018.02
2018-10-09T02:59:24.315Z,1018.02
2018-10-09T03:00:24.295Z,1018.01
2018-10-09T03:01:24.273Z,1017.97
2018-10-09T03:02:24.245Z,1017.94
2018-10-09T03:03:24.229Z,1017.94
2018-10-09T03:04:24.207Z,1017.93
2018-10-09T03:05:24.186Z,1017.96
2018-10-09T03:06:24.166Z,1017.96
2018-10-09T03:07:24.144Z,1017.95
2018-10-09T03:08:24.169Z,1017.94
2018-10-09T03:09:24.096Z,1017.99
2018-10-09T03:10:24.084Z,1017.98
2018-10-09T03:11:24.056Z,1018.01
2018-10-09T03:12:24.036Z,1018.03
2018-10-09T03:13:24.010Z,1017.95
2018-10-09T03:14:23.997Z,1017.98
2018-10-09T03:15:23.966Z,1017.92
2018-10-09T03:16:23.947Z,1017.91
2018-10-09T03:17:23.928Z,1017.91
2018-10-09T03:18:23.903Z,1017.92
2018-10-09T03:19:23.881Z,1017.96
2018-10-09T03:20:23.858Z,1017.92
2018-10-09T03:21:23.849Z,1017.88
2018-10-09T03:22:23.820Z,1017.82
2018-10-09T03:23:23.795Z,1017.88
2018-10-09T03:24:23.783Z,1017.87
2018-10-09T03:25:23.753Z,1017.91
2018-10-09T03:26:23.730Z,1017.90
2018-10-09T03:27:23.715Z,1017.86
2018-10-09T03:28:23.719Z,1017.87
2018-10-09T03:29:23.662Z,1017.85
2018-10-09T03:30:23.646Z,1017.81
2018-10-09T03:31:23.622Z,1017.79
2018-10-09T03:32:23.602Z,1017.82
2018-10-09T03:33:23.579Z,1017.79
2018-10-09T03:34:23.561Z,1017.81
2018-10-09T03:35:23.537Z,1017.83
2018-10-09T03:36:23.512Z,1017.78
2018-10-09T03:37:23.497Z,1017.82
2018-10-09T03:38:23.467Z,1017.84
2018-10-09T03:39:23.449Z,1017.81
2018-10-09T03:40:23.427Z,1017.86
2018-10-09T03:41:23.405Z,1017.85
2018-10-09T03:42:23.385Z,1017.91
2018-10-09T03:43:23.361Z,1017.88
2018-10-09T03:44:23.342Z,1017.89
2018-10-09T03:45:23.317Z,1017.88
2018-10-09T03:46:23.295Z,1017.87
2018-10-09T03:47:23.280Z,1017.89
2018-10-09T03:48:23.255Z,1017.90
2018-10-09T03:49:23.233Z,1017.90
2018-10-09T03:50:23.211Z,1017.89
2018-10-09T03:51:23.187Z,1017.86
2018-10-09T03:52:23.169Z,1017.86
2018-10-09T03:53:23.145Z,1017.88
2018-10-09T03:54:23.121Z,1017.86
2018-10-09T03:55:23.101Z,1017.85
2018-10-09T03:56:23.079Z,1017.87
2018-10-09T03:57:23.058Z,1017.92
2018-10-09T03:58:23.033Z,1017.92
2018-10-09T03:59:23.017Z,1017.91
2018-10-09T04:00:22.995Z,1017.94
2018-10-09T04:01:22.971Z,1017.95
2018-10-09T04:02:22.953Z,1017.90
2018-10-09T04:03:22.924Z,1017.86
2018-10-09T04:04:22.905Z,1017.81
2018-10-09T04:05:22.885Z,1017.81
2018-10-09T04:06:22.863Z,1017.78
2018-10-09T04:07:22.842Z,1017.82
2018-10-09T04:08:22.818Z,1017.86
2018-10-09T04:09:22.855Z,1017.90
2018-10-09T04:10:22.780Z,1017.92
2018-10-09T04:11:22.760Z,1017.96
2018-10-09T04:12:22.733Z,1018.00
2018-10-09T04:13:22.709Z,1017.99
2018-10-09T04:14:22.687Z,1017.92
2018-10-09T04:15:22.667Z,1017.93
2018-10-09T04:16:22.643Z,1017.91
2018-10-09T04:17:22.621Z,1017.90
2018-10-09T04:18:22.604Z,1017.87
2018-10-09T04:19:22.599Z,1017.89
2018-10-09T04:20:22.557Z,1017.81
2018-10-09T04:21:22.536Z,1017.80
2018-10-09T04:22:22.512Z,1017.76
2018-10-09T04:23:22.493Z,1017.77
2018-10-09T04:24:22.469Z,1017.75
2018-10-09T04:25:22.444Z,1017.80
2018-10-09T04:26:22.431Z,1017.81
2018-10-09T04:27:22.403Z,1017.84
2018-10-09T04:28:22.387Z,1017.86
2018-10-09T04:29:22.429Z,1017.89
2018-10-09T04:30:22.339Z,1017.83
2018-10-09T04:31:22.319Z,1017.84
2018-10-09T04:32:22.295Z,1017.87
2018-10-09T04:33:22.275Z,1017.89
2018-10-09T04:34:22.256Z,1017.92
2018-10-09T04:35:22.235Z,1017.94
2018-10-09T04:36:22.212Z,1017.97
2018-10-09T04:37:22.185Z,1017.95
2018-10-09T04:38:22.163Z,1017.99
2018-10-09T04:39:22.143Z,1017.93
2018-10-09T04:40:22.119Z,1017.97
2018-10-09T04:41:22.098Z,1018.00
2018-10-09T04:42:22.080Z,1017.98
2018-10-09T04:43:22.060Z,1017.99
2018-10-09T04:44:22.034Z,1017.97
2018-10-09T04:45:22.034Z,1017.95
2018-10-09T04:46:22.005Z,1017.88
2018-10-09T04:47:21.972Z,1017.90
2018-10-09T04:48:21.999Z,1017.82
2018-10-09T04:49:21.976Z,1017.83
2018-10-09T04:50:21.904Z,1017.87
2018-10-09T04:51:21.879Z,1017.88
2018-10-09T04:52:21.863Z,1017.84
2018-10-09T04:53:21.838Z,1017.82
2018-10-09T04:54:21.817Z,1017.81
2018-10-09T04:55:21.847Z,1017.82
2018-10-09T04:56:21.775Z,1017.88
2018-10-09T04:57:21.749Z,1017.88
2018-10-09T04:58:21.734Z,1017.90
2018-10-09T04:59:21.712Z,1017.86
2018-10-09T05:00:21.684Z,1017.89
2018-10-09T05:01:21.659Z,1017.83
2018-10-09T05:02:21.641Z,1017.82
2018-10-09T05:03:21.619Z,1017.81
2018-10-09T05:04:21.596Z,1017.86
2018-10-09T05:05:21.582Z,1017.86
2018-10-09T05:06:21.557Z,1017.89
2018-10-09T05:07:21.533Z,1017.88
2018-10-09T05:08:21.512Z,1017.84
2018-10-09T05:09:21.491Z,1017.86
2018-10-09T05:10:21.472Z,1017.80
2018-10-09T05:11:21.449Z,1017.80
2018-10-09T05:12:21.427Z,1017.80
2018-10-09T05:13:21.405Z,1017.89
2018-10-09T05:14:21.383Z,1017.91
2018-10-09T05:15:21.355Z,1017.92
2018-10-09T05:16:21.339Z,1017.97
2018-10-09T05:17:21.314Z,1017.96
2018-10-09T05:18:21.297Z,1017.93
2018-10-09T05:19:21.270Z,1017.95
2018-10-09T05:20:21.261Z,1017.98
2018-10-09T05:21:21.230Z,1017.96
2018-10-09T05:22:21.222Z,1017.98
2018-10-09T05:23:21.232Z,1017.94
2018-10-09T05:24:21.163Z,1017.97
2018-10-09T05:25:21.144Z,1017.97
2018-10-09T05:26:21.121Z,1018.01
2018-10-09T05:27:21.100Z,1018.01
2018-10-09T05:28:21.075Z,1017.96
2018-10-09T05:29:21.055Z,1017.96
2018-10-09T05:30:21.035Z,1017.99
2018-10-09T05:31:21.039Z,1018.02
2018-10-09T05:32:20.995Z,1018.09
2018-10-09T05:33:20.968Z,1018.09
2018-10-09T05:34:20.947Z,1018.16
2018-10-09T05:35:20.929Z,1018.17
2018-10-09T05:36:20.903Z,1018.15
2018-10-09T05:37:20.881Z,1018.21
2018-10-09T05:38:20.860Z,1018.18
2018-10-09T05:39:20.840Z,1018.20
2018-10-09T05:40:20.819Z,1018.21
2018-10-09T05:41:20.795Z,1018.19
2018-10-09T05:42:20.774Z,1018.23
2018-10-09T05:43:20.752Z,1018.26
2018-10-09T05:44:20.812Z,1018.30
2018-10-09T05:45:20.707Z,1018.34
2018-10-09T05:46:20.690Z,1018.31
2018-10-09T05:47:20.671Z,1018.36
2018-10-09T05:48:20.643Z,1018.37
2018-10-09T05:49:20.623Z,1018.40
2018-10-09T05:50:20.609Z,1018.37
2018-10-09T05:51:20.583Z,1018.38
2018-10-09T05:52:20.557Z,1018.39
2018-10-09T05:53:20.539Z,1018.36
2018-10-09T05:54:20.517Z,1018.41
2018-10-09T05:55:20.497Z,1018.43
2018-10-09T05:56:20.470Z,1018.44
2018-10-09T05:57:20.449Z,1018.46
2018-10-09T05:58:20.430Z,1018.43
2018-10-09T05:59:20.408Z,1018.41
2018-10-09T06:00:20.385Z,1018.39
2018-10-09T06:01:20.365Z,1018.44
2018-10-09T06:02:20.339Z,1018.43
2018-10-09T06:03:20.321Z,1018.44
2018-10-09T06:04:20.297Z,1018.41
2018-10-09T06:05:20.278Z,1018.48
2018-10-09T06:06:20.256Z,1018.46
2018-10-09T06:07:20.237Z,1018.49
2018-10-09T06:08:20.213Z,1018.50
2018-10-09T06:09:20.199Z,1018.61
2018-10-09T06:10:20.170Z,1018.66
2018-10-09T06:11:20.149Z,1018.70
2018-10-09T06:12:20.125Z,1018.70
2018-10-09T06:13:20.109Z,1018.72
2018-10-09T06:14:20.084Z,1018.72
2018-10-09T06:15:20.094Z,1018.72
2018-10-09T06:16:20.037Z,1018.71
2018-10-09T06:17:20.025Z,1018.70
2018-10-09T06:18:19.999Z,1018.73
2018-10-09T06:19:19.982Z,1018.73
2018-10-09T06:20:19.961Z,1018.73
2018-10-09T06:21:19.985Z,1018.77
2018-10-09T06:22:19.978Z,1018.75
2018-10-09T06:23:19.897Z,1018.76
2018-10-09T06:24:19.875Z,1018.77
2018-10-09T06:25:19.848Z,1018.71
2018-10-09T06:26:19.824Z,1018.71
2018-10-09T06:27:19.811Z,1018.67
2018-10-09T06:28:19.828Z,1018.62
2018-10-09T06:29:19.761Z,1018.59
2018-10-09T06:30:19.743Z,1018.63
2018-10-09T06:31:19.718Z,1018.64
2018-10-09T06:32:19.697Z,1018.67
2018-10-09T06:33:19.676Z,1018.72
2018-10-09T06:34:19.657Z,1018.76
2018-10-09T06:35:19.634Z,1018.78
2018-10-09T06:36:19.612Z,1018.78
2018-10-09T06:37:19.704Z,1018.77
2018-10-09T06:38:19.566Z,1018.76
2018-10-09T06:39:19.550Z,1018.75
2018-10-09T06:40:19.529Z,1018.78
2018-10-09T06:41:19.520Z,1018.77
2018-10-09T06:42:19.488Z,1018.78
2018-10-09T06:43:19.463Z,1018.77
2018-10-09T06:44:19.459Z,1018.79
2018-10-09T06:45:19.425Z,1018.76
2018-10-09T06:46:19.400Z,1018.78
2018-10-09T06:47:19.383Z,1018.78
2018-10-09T06:48:19.365Z,1018.86
2018-10-09T06:49:19.343Z,1018.88
2018-10-09T06:50:19.321Z,1018.82
2018-10-09T06:51:19.296Z,1018.83
2018-10-09T06:52:19.274Z,1018.82
2018-10-09T06:53:19.308Z,1018.86
2018-10-09T06:54:19.317Z,1018.83
2018-10-09T06:55:19.219Z,1018.87
2018-10-09T06:56:19.190Z,1018.91
2018-10-09T06:57:19.174Z,1018.93
2018-10-09T06:58:19.155Z,1018.94
2018-10-09T06:59:19.125Z,1018.96
2018-10-09T07:00:19.224Z,1018.91
2018-10-09T07:01:19.086Z,1018.92
2018-10-09T07:02:19.066Z,1018.97
2018-10-09T07:03:19.046Z,1019.00
2018-10-09T07:04:19.026Z,1018.95
2018-10-09T07:05:19.006Z,1018.99
2018-10-09T07:06:18.979Z,1019.00
2018-10-09T07:07:18.961Z,1019.04
2018-10-09T07:08:18.940Z,1018.99
2018-10-09T07:09:18.966Z,1019.03
2018-10-09T07:10:18.899Z,1019.04
2018-10-09T07:11:19.049Z,1019.01
2018-10-09T07:12:18.857Z,1019.07
2018-10-09T07:13:18.841Z,1019.02
2018-10-09T07:14:18.825Z,1018.98
2018-10-09T07:15:18.801Z,1018.98
2018-10-09T07:16:18.781Z,1019.01
2018-10-09T07:17:18.753Z,1019.04
2018-10-09T07:18:18.733Z,1019.05
2018-10-09T07:19:18.717Z,1019.07
2018-10-09T07:20:18.691Z,1019.12
2018-10-09T07:21:18.673Z,1019.11
2018-10-09T07:22:18.651Z,1019.15
2018-10-09T07:23:18.629Z,1019.14
2018-10-09T07:24:18.607Z,1019.08
2018-10-09T07:25:18.591Z,1019.08
2018-10-09T07:26:18.569Z,1019.11
2018-10-09T07:27:18.551Z,1019.19
2018-10-09T07:28:18.529Z,1019.19
2018-10-09T07:29:18.509Z,1019.25
2018-10-09T07:30:18.486Z,1019.17
2018-10-09T07:31:18.470Z,1019.25
2018-10-09T07:32:18.457Z,1019.25
2018-10-09T07:33:18.425Z,1019.30
2018-10-09T07:34:18.407Z,1019.33
2018-10-09T07:35:18.382Z,1019.32
2018-10-09T07:36:18.365Z,1019.32
2018-10-09T07:37:18.345Z,1019.29
2018-10-09T07:38:18.325Z,1019.36
2018-10-09T07:39:18.304Z,1019.31
2018-10-09T07:40:18.291Z,1019.29
2018-10-09T07:41:18.266Z,1019.27
2018-10-09T07:42:18.245Z,1019.30
2018-10-09T07:43:18.227Z,1019.32
2018-10-09T07:44:18.260Z,1019.29
2018-10-09T07:45:18.187Z,1019.32
2018-10-09T07:46:18.171Z,1019.34
2018-10-09T07:47:18.145Z,1019.41
2018-10-09T07:48:18.124Z,1019.45
2018-10-09T07:49:18.103Z,1019.45
2018-10-09T07:50:18.085Z,1019.48
2018-10-09T07:51:18.071Z,1019.49
2018-10-09T07:52:18.043Z,1019.48
2018-10-09T07:53:18.024Z,1019.52
2018-10-09T07:54:18.005Z,1019.57
2018-10-09T07:55:17.986Z,1019.57
2018-10-09T07:56:17.975Z,1019.58
2018-10-09T07:57:17.947Z,1019.65
2018-10-09T07:58:17.931Z,1019.62
2018-10-09T07:59:17.911Z,1019.63
2018-10-09T08:00:17.887Z,1019.59
2018-10-09T08:01:17.868Z,1019.61
2018-10-09T08:02:17.851Z,1019.66
2018-10-09T08:03:17.829Z,1019.65
2018-10-09T08:04:17.810Z,1019.67
2018-10-09T08:05:17.793Z,1019.70
2018-10-09T08:06:17.777Z,1019.71
2018-10-09T08:07:17.754Z,1019.69
2018-10-09T08:08:17.735Z,1019.70
2018-10-09T08:09:17.709Z,1019.66
2018-10-09T08:10:17.705Z,1019.65
2018-10-09T08:11:17.675Z,1019.69
2018-10-09T08:12:17.659Z,1019.70
2018-10-09T08:13:17.666Z,1019.70
2018-10-09T08:14:17.619Z,1019.70
2018-10-09T08:15:17.600Z,1019.68
2018-10-09T08:16:17.641Z,1019.62
2018-10-09T08:17:17.562Z,1019.61
2018-10-09T08:18:17.539Z,1019.61
2018-10-09T08:19:17.523Z,1019.65
2018-10-09T08:20:17.501Z,1019.62
2018-10-09T08:21:17.493Z,1019.61
2018-10-09T08:22:17.491Z,1019.64
2018-10-09T08:23:17.451Z,1019.64
2018-10-09T08:24:17.427Z,1019.66
2018-10-09T08:25:17.421Z,1019.72
2018-10-09T08:26:17.393Z,1019.73
2018-10-09T08:27:17.379Z,1019.79
2018-10-09T08:28:17.355Z,1019.78
2018-10-09T08:29:17.336Z,1019.82
2018-10-09T08:30:17.319Z,1019.87
2018-10-09T08:31:17.301Z,1019.85
2018-10-09T08:32:17.343Z,1019.86
2018-10-09T08:33:17.265Z,1019.90
2018-10-09T08:34:17.242Z,1019.91
2018-10-09T08:35:17.229Z,1019.92
2018-10-09T08:36:17.209Z,1019.95
2018-10-09T08:37:17.191Z,1019.97
2018-10-09T08:38:17.170Z,1020.03
2018-10-09T08:39:17.154Z,1020.05
2018-10-09T08:40:17.190Z,1020.02
2018-10-09T08:41:17.124Z,1020.02
2018-10-09T08:42:17.101Z,1020.02
2018-10-09T08:43:17.077Z,1019.98
2018-10-09T08:44:17.062Z,1020.02
2018-10-09T08:45:17.044Z,1020.07
2018-10-09T08:46:17.085Z,1020.06
2018-10-09T08:47:17.006Z,1020.06
2018-10-09T08:48:16.991Z,1020.09
2018-10-09T08:49:16.977Z,1020.06
2018-10-09T08:50:16.961Z,1020.04
2018-10-09T08:51:16.939Z,1020.03
2018-10-09T08:52:16.924Z,1020.03
2018-10-09T08:53:16.903Z,1020.08
2018-10-09T08:54:16.887Z,1020.06
2018-10-09T08:55:16.869Z,1020.07
2018-10-09T08:56:16.864Z,1020.06
2018-10-09T08:57:16.883Z,1020.07
2018-10-09T08:58:16.820Z,1020.09
2018-10-09T08:59:16.804Z,1020.11
2018-10-09T09:00:16.786Z,1020.10
2018-10-09T09:01:16.765Z,1020.15
2018-10-09T09:02:16.747Z,1020.13
2018-10-09T09:03:16.731Z,1020.15
2018-10-09T09:04:16.716Z,1020.11
2018-10-09T09:05:16.699Z,1020.13
2018-10-09T09:06:16.683Z,1020.07
2018-10-09T09:07:16.667Z,1020.03
2018-10-09T09:08:16.650Z,1019.98
2018-10-09T09:09:16.636Z,1019.96
2018-10-09T09:10:16.616Z,1019.97
2018-10-09T09:11:16.600Z,1019.98
2018-10-09T09:12:16.586Z,1020.01
2018-10-09T09:13:16.566Z,1020.02
2018-10-09T09:14:16.547Z,1019.99
2018-10-09T09:15:16.559Z,1020.04
2018-10-09T09:16:16.521Z,1020.07
2018-10-09T09:17:16.501Z,1020.10
2018-10-09T09:18:16.489Z,1020.10
2018-10-09T09:19:16.475Z,1020.12
2018-10-09T09:20:16.452Z,1020.15
2018-10-09T09:21:16.458Z,1020.20
2018-10-09T09:22:16.421Z,1020.22
2018-10-09T09:23:16.404Z,1020.25
2018-10-09T09:24:16.395Z,1020.30
2018-10-09T09:25:16.375Z,1020.31
2018-10-09T09:26:16.436Z,1020.30
2018-10-09T09:27:16.535Z,1020.27
2018-10-09T09:28:16.325Z,1020.23
2018-10-09T09:29:16.309Z,1020.21
2018-10-09T09:30:16.293Z,1020.23
2018-10-09T09:31:16.277Z,1020.22
2018-10-09T09:32:16.261Z,1020.22
2018-10-09T09:33:16.273Z,1020.26
2018-10-09T09:34:16.227Z,1020.21
2018-10-09T09:35:16.215Z,1020.27
2018-10-09T09:36:16.199Z,1020.31
2018-10-09T09:37:16.177Z,1020.29
2018-10-09T09:38:16.164Z,1020.32
2018-10-09T09:39:16.151Z,1020.29
2018-10-09T09:40:16.133Z,1020.30
2018-10-09T09:41:16.115Z,1020.26
2018-10-09T09:42:16.104Z,1020.33
2018-10-09T09:43:16.090Z,1020.33
2018-10-09T09:44:16.068Z,1020.40
2018-10-09T09:45:16.056Z,1020.34
2018-10-09T09:46:16.064Z,1020.41
2018-10-09T09:47:16.032Z,1020.40
2018-10-09T09:48:16.006Z,1020.38
2018-10-09T09:49:15.990Z,1020.37
2018-10-09T09:50:15.978Z,1020.35
2018-10-09T09:51:15.963Z,1020.33
2018-10-09T09:52:16.040Z,1020.33
2018-10-09T09:53:15.932Z,1020.33
2018-10-09T09:54:15.921Z,1020.29
2018-10-09T09:55:15.908Z,1020.29
2018-10-09T09:56:15.887Z,1020.30
2018-10-09T09:57:15.875Z,1020.25
2018-10-09T09:58:15.963Z,1020.24
2018-10-09T09:59:15.899Z,1020.33
2018-10-09T10:00:15.833Z,1020.30
2018-10-09T10:01:15.815Z,1020.33
2018-10-09T10:02:15.811Z,1020.30
2018-10-09T10:03:15.790Z,1020.33
2018-10-09T10:04:15.774Z,1020.29
2018-10-09T10:05:15.759Z,1020.32
2018-10-09T10:06:15.748Z,1020.34
2018-10-09T10:07:15.734Z,1020.31
2018-10-09T10:08:15.716Z,1020.34
2018-10-09T10:09:15.738Z,1020.30
2018-10-09T10:10:15.694Z,1020.22
2018-10-09T10:11:15.682Z,1020.29
2018-10-09T10:12:15.664Z,1020.31
2018-10-09T10:13:15.658Z,1020.39
2018-10-09T10:14:15.641Z,1020.44
2018-10-09T10:15:15.629Z,1020.41
2018-10-09T10:16:15.616Z,1020.43
2018-10-09T10:17:15.601Z,1020.39
2018-10-09T10:18:15.589Z,1020.42
2018-10-09T10:19:15.575Z,1020.44
2018-10-09T10:20:15.567Z,1020.40
2018-10-09T10:21:15.592Z,1020.35
2018-10-09T10:22:15.535Z,1020.38
2018-10-09T10:23:15.529Z,1020.32
2018-10-09T10:24:15.513Z,1020.36
2018-10-09T10:25:15.500Z,1020.31
2018-10-09T10:26:15.488Z,1020.36
2018-10-09T10:27:15.476Z,1020.27
2018-10-09T10:28:15.462Z,1020.25
2018-10-09T10:29:15.543Z,1020.30
2018-10-09T10:30:15.440Z,1020.31
2018-10-09T10:31:15.432Z,1020.31
2018-10-09T10:32:15.424Z,1020.33
2018-10-09T10:33:15.405Z,1020.43
2018-10-09T10:34:15.397Z,1020.36
2018-10-09T10:35:15.391Z,1020.35
2018-10-09T10:36:15.376Z,1020.35
2018-10-09T10:37:15.380Z,1020.36
2018-10-09T10:38:15.355Z,1020.32
2018-10-09T10:39:15.348Z,1020.27
2018-10-09T10:40:15.338Z,1020.23
2018-10-09T10:41:15.326Z,1020.28
2018-10-09T10:42:15.386Z,1020.24
2018-10-09T10:43:15.305Z,1020.27
2018-10-09T10:44:15.292Z,1020.27
2018-10-09T10:45:15.282Z,1020.28
2018-10-09T10:46:15.272Z,1020.37
2018-10-09T10:47:15.262Z,1020.46
2018-10-09T10:48:15.248Z,1020.36
2018-10-09T10:49:15.265Z,1020.44
2018-10-09T10:50:15.234Z,1020.48
2018-10-09T10:51:15.226Z,1020.36
2018-10-09T10:52:15.215Z,1020.29
2018-10-09T10:53:15.200Z,1020.32
2018-10-09T10:54:15.194Z,1020.46
2018-10-09T10:55:15.189Z,1020.48
2018-10-09T10:56:15.174Z,1020.37
2018-10-09T10:57:15.168Z,1020.33
2018-10-09T10:58:15.162Z,1020.29
2018-10-09T10:59:15.147Z,1020.33
2018-10-09T11:00:15.143Z,1020.46
2018-10-09T11:01:15.174Z,1020.37
2018-10-09T11:02:15.124Z,1020.39
2018-10-09T11:03:15.110Z,1020.44
2018-10-09T11:04:15.102Z,1020.61
2018-10-09T11:05:15.094Z,1020.85
2018-10-09T11:06:15.105Z,1021.05
2018-10-09T11:07:15.078Z,1021.15
2018-10-09T11:08:15.077Z,1020.78
2018-10-09T11:09:15.061Z,1020.35
2018-10-09T11:10:15.048Z,1020.24
2018-10-09T11:11:15.044Z,1020.25
2018-10-09T11:12:15.031Z,1020.20
2018-10-09T11:13:15.028Z,1020.25
2018-10-09T11:14:15.016Z,1020.36
2018-10-09T11:15:15.010Z,1020.44
2018-10-09T11:16:15.004Z,1020.48
2018-10-09T11:17:14.992Z,1020.24
2018-10-09T11:18:14.982Z,1020.05
2018-10-09T11:19:14.973Z,1020.13
2018-10-09T11:20:14.960Z,1020.30
2018-10-09T11:21:15.025Z,1020.26
2018-10-09T11:22:14.948Z,1020.20
2018-10-09T11:23:14.937Z,1020.26
2018-10-09T11:24:14.934Z,1020.00
2018-10-09T11:25:14.921Z,1019.95
2018-10-09T11:26:14.911Z,1019.89
2018-10-09T11:27:14.904Z,1019.88
2018-10-09T11:28:14.895Z,1019.96
2018-10-09T11:29:14.886Z,1019.98
2018-10-09T11:30:14.881Z,1019.94
2018-10-09T11:31:14.868Z,1019.86
2018-10-09T11:32:14.870Z,1019.82
2018-10-09T11:33:14.851Z,1019.77
2018-10-09T11:34:14.843Z,1019.78
2018-10-09T11:35:14.836Z,1019.80
2018-10-09T11:36:14.822Z,1019.77
2018-10-09T11:37:14.817Z,1019.76
2018-10-09T11:38:14.844Z,1019.74
2018-10-09T11:39:14.803Z,1019.76
2018-10-09T11:40:14.789Z,1019.73
2018-10-09T11:41:14.776Z,1019.70
2018-10-09T11:42:14.767Z,1019.66
2018-10-09T11:43:14.756Z,1019.68
2018-10-09T11:44:14.748Z,1019.72
2018-10-09T11:45:14.737Z,1019.78
2018-10-09T11:46:14.726Z,1019.84
2018-10-09T11:47:14.718Z,1019.93
2018-10-09T11:48:14.714Z,1019.86
2018-10-09T11:49:14.699Z,1019.91
2018-10-09T11:50:14.706Z,1019.87
2018-10-09T11:51:14.680Z,1019.84
2018-10-09T11:52:14.677Z,1019.78
2018-10-09T11:53:14.655Z,1019.75
2018-10-09T11:54:14.651Z,1019.72
2018-10-09T11:55:14.638Z,1019.78
2018-10-09T11:56:14.633Z,1019.80
2018-10-09T11:57:14.620Z,1019.80
2018-10-09T11:58:14.610Z,1019.82
2018-10-09T11:59:14.602Z,1019.79
2018-10-09T12:00:14.591Z,1019.94
2018-10-09T12:01:14.583Z,1019.92
2018-10-09T12:02:14.572Z,1020.08
2018-10-09T12:03:14.560Z,1020.08
2018-10-09T12:04:14.549Z,1020.01
2018-10-09T12:05:14.537Z,1019.83